< < Back
Terminal Aerodrome Forecast


Current Version              Previous Versions:   1  2  3  4  5  6  7  8  9  

Terminal Aerodrome Forecast

393
FTUS42 KFFC 300300 AAB
TAFAHN
TAF AMD
KAHN 300308Z 3003/3024 08004KT P6SM SCT004 BKN012
      TEMPO 3003/3005 BKN006
     FM300500 06004KT 5SM BR BKN006
     FM300700 05004KT 3SM BR OVC004
     FM301400 04005KT 6SM BR SCT015
     FM301800 07006KT P6SM FEW040=

Latest METAR

850
SAUS70 KWBC 300600
MTRAHN
METAR KAHN 300551Z AUTO 03003KT 8SM OVC010 18/18 A2996 RMK AO2 SLP140
60001 T01830178 10194 20178 58006


USA.gov is the U.S. government's official web portal to all federal, state and local government web resources and services.